Laytonsville, Maryland
Current Conditions -  °F | °C
As of 1:55 AM on Saturday 25 Oct 2014 (Local Time) from KGAI Reporting Station
Clear Clear  
Wind Chill: 45°   Ceiling: Unl
Heat Index: 48°   Visibility: 10mi
Dew Point: 36°   Wind: 7mph
Humidity: 62%   Direction: 300°WNW
Pressure: 29.99"   Gusts: NA
Location:  39.2308°N, 77.143°W
Report Text: KGAI 250555Z 30006KT 10SM CLR 09/02 A2999 RMK AO1 10140 20090 54000
Loading
Personal Weather Stations






























Interactive Weather Map
Tropical Storm Tracking
New forecast layout! Learn more

10-Day Weather Forecast

Advertisements
Track Severe Weather on mobile